createdAt,value
2019-03-28T00:01:48.536Z,102222.23
2019-03-28T00:04:38.835Z,102221.45
2019-03-28T00:07:26.742Z,102214.09
2019-03-28T00:10:13.840Z,102219.02
2019-03-28T00:13:00.672Z,102220.53
2019-03-28T00:18:57.390Z,102214.39
2019-03-28T00:21:42.301Z,102211.92
2019-03-28T00:24:29.429Z,102211.90
2019-03-28T00:27:17.653Z,102205.95
2019-03-28T00:30:08.052Z,102204.13
2019-03-28T00:32:54.847Z,102208.71
2019-03-28T00:35:41.976Z,102203.09
2019-03-28T00:38:30.100Z,102201.45
2019-03-28T00:41:16.935Z,102197.23
2019-03-28T00:44:04.028Z,102199.08
2019-03-28T00:46:54.627Z,102202.66
2019-03-28T00:49:42.273Z,102201.88
2019-03-28T00:52:29.250Z,102199.31
2019-03-28T00:55:16.086Z,102199.87
2019-03-28T00:58:02.809Z,102198.64
2019-03-28T01:00:50.443Z,102200.91
2019-03-28T01:03:37.251Z,102194.36
2019-03-28T01:06:23.910Z,102193.94
2019-03-28T01:09:10.724Z,102195.28
2019-03-28T01:11:57.812Z,102201.06
2019-03-28T01:14:45.693Z,102202.42
2019-03-28T01:17:33.220Z,102206.84
2019-03-28T01:20:20.766Z,102200.29
2019-03-28T01:23:08.247Z,102203.80
2019-03-28T01:25:55.083Z,102200.74
2019-03-28T01:28:41.895Z,102199.45
2019-03-28T01:31:30.155Z,102197.30
2019-03-28T01:34:17.355Z,102200.80
2019-03-28T01:37:05.304Z,102197.27
2019-03-28T01:42:58.691Z,102197.25
2019-03-28T01:48:52.432Z,102200.19
2019-03-28T01:51:40.270Z,102192.28
2019-03-28T01:54:27.200Z,102191.90
2019-03-28T01:57:14.580Z,102190.63
2019-03-28T02:00:03.184Z,102194.66
2019-03-28T02:05:57.746Z,102194.72
2019-03-28T02:09:17.950Z,102197.39
2019-03-28T02:12:05.285Z,102188.52
2019-03-28T02:14:52.479Z,102191.25
2019-03-28T02:17:39.285Z,102190.59
2019-03-28T02:20:26.580Z,102191.58
2019-03-28T02:23:17.052Z,102198.19
2019-03-28T02:26:04.399Z,102189.84
2019-03-28T02:28:51.515Z,102197.81
2019-03-28T02:31:42.952Z,102191.20
2019-03-28T02:34:29.790Z,102190.41
2019-03-28T02:37:16.677Z,102196.37
2019-03-28T02:40:04.697Z,102195.61
2019-03-28T02:42:53.520Z,102196.47
2019-03-28T02:45:41.279Z,102194.75
2019-03-28T02:48:28.576Z,102201.33
2019-03-28T02:51:15.735Z,102198.73
2019-03-28T02:54:02.778Z,102201.82
2019-03-28T02:56:50.358Z,102198.23
2019-03-28T02:59:38.315Z,102196.92
2019-03-28T03:02:25.025Z,102207.23
2019-03-28T03:05:12.936Z,102207.11
2019-03-28T03:11:06.223Z,102211.02
2019-03-28T03:13:53.665Z,102208.14
2019-03-28T03:16:40.464Z,102208.39
2019-03-28T03:22:42.509Z,102210.45
2019-03-28T03:25:30.348Z,102217.58
2019-03-28T03:28:17.451Z,102213.58
2019-03-28T03:31:04.367Z,102221.84
2019-03-28T03:33:51.709Z,102226.47
2019-03-28T03:36:38.602Z,102229.25
2019-03-28T03:39:25.887Z,102228.53
2019-03-28T03:42:12.654Z,102224.69
2019-03-28T03:45:00.614Z,102227.41
2019-03-28T03:47:48.528Z,102219.95
2019-03-28T03:50:35.731Z,102228.38
2019-03-28T03:56:39.944Z,102228.44
2019-03-28T03:59:26.755Z,102234.18
2019-03-28T04:02:14.816Z,102229.34
2019-03-28T04:08:22.342Z,102228.06
2019-03-28T04:11:10.020Z,102237.02
2019-03-28T04:13:57.442Z,102241.48
2019-03-28T04:16:44.617Z,102242.79
2019-03-28T04:19:32.067Z,102244.11
2019-03-28T04:35:28.171Z,102248.48
2019-03-28T04:48:07.664Z,102248.28
2019-03-28T04:54:01.361Z,102246.91
2019-03-28T04:56:48.306Z,102250.05
2019-03-28T04:59:36.226Z,102252.22
2019-03-28T05:02:23.048Z,102259.39
2019-03-28T05:05:10.410Z,102264.31
2019-03-28T05:07:58.058Z,102264.09
2019-03-28T05:10:44.952Z,102268.58
2019-03-28T05:13:41.618Z,102271.77
2019-03-28T05:16:28.619Z,102270.13
2019-03-28T05:22:22.427Z,102267.97
2019-03-28T05:25:09.226Z,102277.02
2019-03-28T05:27:56.222Z,102273.20
2019-03-28T05:30:43.852Z,102272.27
2019-03-28T05:36:36.790Z,102276.67
2019-03-28T05:39:23.930Z,102279.83
2019-03-28T05:42:10.977Z,102280.78
2019-03-28T05:44:58.280Z,102289.59
2019-03-28T05:47:45.513Z,102287.87
2019-03-28T05:56:44.370Z,102290.05
2019-03-28T05:59:31.158Z,102288.66
2019-03-28T06:02:32.160Z,102293.03
2019-03-28T06:05:18.842Z,102294.34
2019-03-28T06:08:06.804Z,102286.78
2019-03-28T06:10:54.102Z,102291.62
2019-03-28T06:19:52.542Z,102298.84
2019-03-28T06:22:39.916Z,102300.10
2019-03-28T06:40:58.651Z,102317.61
2019-03-28T06:43:45.365Z,102320.31
2019-03-28T06:46:32.270Z,102321.37
2019-03-28T06:49:19.283Z,102316.84
2019-03-28T06:52:07.726Z,102325.19
2019-03-28T06:54:56.420Z,102320.61
2019-03-28T07:07:04.434Z,102318.59
2019-03-28T07:16:05.241Z,102326.41
2019-03-28T07:18:53.405Z,102325.14
2019-03-28T07:24:47.604Z,102313.17
2019-03-28T07:27:34.715Z,102313.52
2019-03-28T07:30:21.864Z,102315.14
2019-03-28T07:33:09.077Z,102324.33
2019-03-28T07:35:56.349Z,102324.16
2019-03-28T07:51:07.583Z,102317.98
2019-03-28T08:00:12.756Z,102320.02
2019-03-28T08:02:59.452Z,102323.34
2019-03-28T08:05:46.365Z,102325.41
2019-03-28T08:08:38.633Z,102316.66
2019-03-28T08:11:20.746Z,102325.20
2019-03-28T08:14:08.303Z,102326.13
2019-03-28T08:16:56.562Z,102320.58
2019-03-28T08:19:43.680Z,102321.39
2019-03-28T08:22:30.882Z,102317.38
2019-03-28T08:28:24.120Z,102329.88
2019-03-28T08:31:10.875Z,102330.22
2019-03-28T08:34:12.422Z,102331.72
2019-03-28T08:58:50.392Z,102354.28
2019-03-28T09:01:37.913Z,102355.90
2019-03-28T09:04:24.938Z,102359.67
2019-03-28T09:07:12.113Z,102368.52
2019-03-28T09:16:12.269Z,102360.23
2019-03-28T09:18:59.544Z,102364.11
2019-03-28T09:28:03.320Z,102357.08
2019-03-28T09:30:50.506Z,102362.90
2019-03-28T09:36:53.636Z,102354.65
2019-03-28T09:39:40.692Z,102356.05
2019-03-28T09:42:27.853Z,102350.64
2019-03-28T09:45:14.943Z,102352.17
2019-03-28T09:48:01.884Z,102355.17
2019-03-28T09:50:48.486Z,102349.28
2019-03-28T09:53:36.420Z,102348.73
2019-03-28T09:56:23.643Z,102343.34
2019-03-28T09:59:10.690Z,102342.45
2019-03-28T10:05:09.717Z,102329.48
2019-03-28T10:07:56.697Z,102329.22
2019-03-28T10:10:44.102Z,102335.07
2019-03-28T10:16:40.232Z,102332.53
2019-03-28T10:19:24.791Z,102339.89
2019-03-28T10:22:12.115Z,102336.48
2019-03-28T10:28:06.190Z,102331.23
2019-03-28T10:30:53.707Z,102335.93
2019-03-28T10:33:40.497Z,102332.44
2019-03-28T10:36:28.007Z,102332.03
2019-03-28T10:39:14.898Z,102337.27
2019-03-28T10:42:02.250Z,102337.91
2019-03-28T10:47:55.362Z,102343.78
2019-03-28T10:50:45.619Z,102340.22
2019-03-28T10:53:30.274Z,102335.83
2019-03-28T10:56:21.886Z,102331.03
2019-03-28T10:59:03.449Z,102336.95
2019-03-28T11:01:51.185Z,102344.05
2019-03-28T11:04:37.558Z,102347.58
2019-03-28T11:07:25.137Z,102343.42
2019-03-28T11:10:11.905Z,102345.06
2019-03-28T11:12:59.112Z,102343.80
2019-03-28T11:15:46.335Z,102342.96
2019-03-28T11:18:33.094Z,102341.52
2019-03-28T11:21:20.078Z,102342.45
2019-03-28T11:24:07.770Z,102342.53
2019-03-28T11:26:54.891Z,102337.23
2019-03-28T11:29:41.958Z,102340.66
2019-03-28T11:32:28.747Z,102335.31
2019-03-28T11:35:16.289Z,102334.52
2019-03-28T11:38:03.678Z,102335.17
2019-03-28T11:40:50.810Z,102336.77
2019-03-28T11:43:39.207Z,102344.44
2019-03-28T11:49:34.586Z,102330.45
2019-03-28T11:52:21.693Z,102332.22
2019-03-28T11:55:08.627Z,102333.70
2019-03-28T11:57:56.617Z,102338.95
2019-03-28T12:00:42.955Z,102333.05
2019-03-28T12:03:29.736Z,102334.34
2019-03-28T12:06:17.202Z,102327.42
2019-03-28T12:09:05.222Z,102327.87
2019-03-28T12:11:53.051Z,102327.33
2019-03-28T12:14:38.860Z,102331.77
2019-03-28T12:17:25.756Z,102332.46
2019-03-28T12:20:13.213Z,102335.38
2019-03-28T12:23:00.710Z,102330.00
2019-03-28T12:25:47.624Z,102334.84
2019-03-28T12:28:34.817Z,102335.64
2019-03-28T12:31:21.957Z,102338.16
2019-03-28T12:34:09.102Z,102338.05
2019-03-28T12:36:56.485Z,102344.05
2019-03-28T12:39:43.188Z,102339.29
2019-03-28T12:42:31.225Z,102338.22
2019-03-28T12:45:18.754Z,102338.72
2019-03-28T12:48:05.691Z,102339.41
2019-03-28T12:50:58.727Z,102339.39
2019-03-28T12:53:39.415Z,102346.94
2019-03-28T12:56:26.506Z,102350.81
2019-03-28T12:59:13.241Z,102344.16
2019-03-28T13:02:00.465Z,102349.72
2019-03-28T13:04:48.688Z,102340.90
2019-03-28T13:07:36.640Z,102343.64
2019-03-28T13:10:23.752Z,102344.89
2019-03-28T13:13:10.467Z,102347.34
2019-03-28T13:15:57.227Z,102347.16
2019-03-28T13:18:46.441Z,102340.97
2019-03-28T13:21:33.080Z,102336.61
2019-03-28T13:24:20.577Z,102344.72
2019-03-28T13:30:14.800Z,102342.06
2019-03-28T13:33:01.909Z,102343.79
2019-03-28T13:35:49.340Z,102330.41
2019-03-28T13:38:36.435Z,102335.46
2019-03-28T13:41:24.240Z,102336.29
2019-03-28T13:44:12.364Z,102341.31
2019-03-28T13:46:59.293Z,102342.66
2019-03-28T13:49:46.670Z,102344.78
2019-03-28T13:52:34.156Z,102337.25
2019-03-28T13:55:21.479Z,102337.91
2019-03-28T13:58:08.396Z,102333.06
2019-03-28T14:04:20.933Z,102334.08
2019-03-28T14:07:07.935Z,102326.81
2019-03-28T14:09:54.711Z,102338.02
2019-03-28T14:12:41.554Z,102339.55
2019-03-28T14:15:28.921Z,102341.09
2019-03-28T14:18:16.984Z,102350.22
2019-03-28T14:21:04.101Z,102345.02
2019-03-28T14:23:51.291Z,102349.46
2019-03-28T14:26:53.408Z,102342.66
2019-03-28T14:29:40.614Z,102351.80
2019-03-28T14:32:28.632Z,102349.30
2019-03-28T14:35:15.481Z,102351.73
2019-03-28T14:38:02.792Z,102349.16
2019-03-28T14:40:50.087Z,102352.58
2019-03-28T14:43:37.010Z,102357.28
2019-03-28T14:46:24.501Z,102353.38
2019-03-28T14:49:11.774Z,102357.22
2019-03-28T14:51:58.882Z,102357.88
2019-03-28T14:54:45.688Z,102358.38
2019-03-28T14:57:32.893Z,102356.22
2019-03-28T15:00:24.000Z,102355.97
2019-03-28T15:03:24.555Z,102362.16
2019-03-28T15:09:05.513Z,102361.73
2019-03-28T15:11:52.266Z,102364.30
2019-03-28T15:14:39.295Z,102356.56
2019-03-28T15:17:26.360Z,102354.19
2019-03-28T15:20:13.655Z,102360.69
2019-03-28T15:23:00.304Z,102360.94
2019-03-28T15:25:47.614Z,102363.83
2019-03-28T15:28:34.597Z,102357.89
2019-03-28T15:31:22.770Z,102354.98
2019-03-28T15:34:09.992Z,102356.36
2019-03-28T15:43:10.656Z,102357.02
2019-03-28T15:45:59.566Z,102348.73
2019-03-28T15:48:46.908Z,102354.14
2019-03-28T15:51:33.972Z,102354.39
2019-03-28T15:54:21.370Z,102355.66
2019-03-28T15:57:08.982Z,102352.66
2019-03-28T15:59:55.888Z,102354.79
2019-03-28T16:02:43.114Z,102354.88
2019-03-28T16:05:30.555Z,102357.22
2019-03-28T16:08:17.766Z,102360.98
2019-03-28T16:11:04.583Z,102357.96
2019-03-28T16:13:51.798Z,102357.11
2019-03-28T16:16:38.710Z,102348.76
2019-03-28T16:19:25.637Z,102350.68
2019-03-28T16:22:15.537Z,102361.31
2019-03-28T16:24:59.921Z,102352.17
2019-03-28T16:27:46.681Z,102359.44
2019-03-28T16:30:37.122Z,102352.16
2019-03-28T16:33:24.775Z,102349.66
2019-03-28T16:36:12.123Z,102349.12
2019-03-28T16:38:59.729Z,102354.34
2019-03-28T16:41:46.775Z,102353.04
2019-03-28T16:44:41.778Z,102349.63
2019-03-28T16:47:28.506Z,102351.01
2019-03-28T16:50:15.291Z,102350.14
2019-03-28T16:53:02.687Z,102353.84
2019-03-28T16:58:55.778Z,102359.42
2019-03-28T17:01:43.199Z,102360.34
2019-03-28T17:04:30.211Z,102361.16
2019-03-28T17:07:17.735Z,102367.73
2019-03-28T17:10:08.132Z,102365.87
2019-03-28T17:16:02.603Z,102370.74
2019-03-28T17:18:49.289Z,102372.01
2019-03-28T17:21:36.839Z,102374.14
2019-03-28T17:24:23.684Z,102377.00
2019-03-28T17:27:10.481Z,102375.66
2019-03-28T17:29:57.397Z,102381.08
2019-03-28T17:32:44.391Z,102383.49
2019-03-28T17:35:30.995Z,102385.34
2019-03-28T17:38:17.644Z,102389.81
2019-03-28T17:41:06.666Z,102393.55
2019-03-28T17:43:52.374Z,102390.20
2019-03-28T17:46:39.179Z,102402.09
2019-03-28T17:49:26.604Z,102401.53
2019-03-28T17:52:13.545Z,102408.84
2019-03-28T17:55:01.352Z,102405.87
2019-03-28T17:57:49.068Z,102410.20
2019-03-28T18:00:35.913Z,102410.68
2019-03-28T18:03:31.046Z,102425.24
2019-03-28T18:06:09.920Z,102418.55
2019-03-28T18:08:56.884Z,102424.53
2019-03-28T18:11:44.950Z,102420.16
2019-03-28T18:14:31.567Z,102422.12
2019-03-28T18:17:18.578Z,102426.77
2019-03-28T18:20:05.723Z,102428.52
2019-03-28T18:22:52.752Z,102423.32
2019-03-28T18:28:47.098Z,102430.48
2019-03-28T18:31:49.438Z,102433.48
2019-03-28T18:34:22.466Z,102441.16
2019-03-28T18:37:09.511Z,102433.78
2019-03-28T18:39:56.710Z,102441.39
2019-03-28T18:42:44.011Z,102443.20
2019-03-28T18:45:33.892Z,102444.09
2019-03-28T18:48:29.392Z,102446.19
2019-03-28T18:51:06.501Z,102457.63
2019-03-28T18:53:53.329Z,102457.43
2019-03-28T18:56:49.868Z,102457.50
2019-03-28T18:59:36.794Z,102460.61
2019-03-28T19:02:23.994Z,102458.01
2019-03-28T19:11:41.053Z,102464.91
2019-03-28T19:14:34.864Z,102463.69
2019-03-28T19:17:22.814Z,102460.69
2019-03-28T19:20:12.732Z,102462.97
2019-03-28T19:22:58.465Z,102460.86
2019-03-28T19:28:56.775Z,102454.33
2019-03-28T19:31:44.189Z,102463.13
2019-03-28T19:34:31.054Z,102464.91
2019-03-28T19:37:18.221Z,102460.78
2019-03-28T19:40:08.196Z,102469.61
2019-03-28T19:42:56.137Z,102465.57
2019-03-28T19:45:43.658Z,102458.62
2019-03-28T19:48:30.464Z,102464.21
2019-03-28T19:51:20.127Z,102455.97
2019-03-28T19:54:07.977Z,102459.25
2019-03-28T19:56:57.241Z,102459.34
2019-03-28T19:59:42.621Z,102458.48
2019-03-28T20:02:30.264Z,102468.25
2019-03-28T20:05:17.938Z,102465.16
2019-03-28T20:08:15.398Z,102467.42
2019-03-28T20:10:51.916Z,102473.66
2019-03-28T20:13:39.660Z,102463.08
2019-03-28T20:16:27.477Z,102469.27
2019-03-28T20:19:17.725Z,102468.40
2019-03-28T20:22:02.702Z,102467.50
2019-03-28T20:24:49.780Z,102464.84
2019-03-28T20:27:36.967Z,102462.67
2019-03-28T20:30:23.887Z,102458.91
2019-03-28T20:33:11.721Z,102464.72
2019-03-28T20:36:18.898Z,102466.30
2019-03-28T20:41:50.850Z,102468.36
2019-03-28T20:48:56.679Z,102471.58
2019-03-28T20:51:43.818Z,102469.29
2019-03-28T20:54:30.834Z,102480.56
2019-03-28T20:57:17.641Z,102484.41
2019-03-28T21:00:08.643Z,102488.55
2019-03-28T21:02:54.843Z,102487.39
2019-03-28T21:08:47.807Z,102485.37
2019-03-28T21:14:44.259Z,102494.30
2019-03-28T21:17:32.272Z,102495.97
2019-03-28T21:20:18.049Z,102499.51
2019-03-28T21:23:05.784Z,102497.55
2019-03-28T21:25:53.024Z,102496.42
2019-03-28T21:28:56.029Z,102494.75
2019-03-28T21:31:49.670Z,102492.69
2019-03-28T21:34:29.814Z,102487.42
2019-03-28T21:40:22.938Z,102485.27
2019-03-28T21:43:09.813Z,102486.39
2019-03-28T21:45:57.540Z,102475.91
2019-03-28T21:51:50.220Z,102485.47
2019-03-28T21:54:38.964Z,102471.69
2019-03-28T21:57:25.642Z,102476.48
2019-03-28T22:00:12.882Z,102472.08
2019-03-28T22:02:59.574Z,102471.05
2019-03-28T22:05:46.815Z,102472.12
2019-03-28T22:08:33.499Z,102478.58
2019-03-28T22:11:23.418Z,102472.55
2019-03-28T22:14:10.211Z,102471.08
2019-03-28T22:16:57.303Z,102473.94
2019-03-28T22:19:44.845Z,102474.52
2019-03-28T22:22:32.660Z,102475.95
2019-03-28T22:25:19.399Z,102467.22
2019-03-28T22:31:19.700Z,102456.82
2019-03-28T22:34:07.142Z,102458.70
2019-03-28T22:36:57.444Z,102454.34
2019-03-28T22:39:40.765Z,102457.20
2019-03-28T22:42:27.894Z,102459.01
2019-03-28T22:45:15.777Z,102454.43
2019-03-28T22:48:10.650Z,102456.53
2019-03-28T22:50:50.358Z,102455.39
2019-03-28T22:53:37.488Z,102455.46
2019-03-28T22:56:24.822Z,102458.50
2019-03-28T22:59:11.508Z,102464.13
2019-03-28T23:01:58.215Z,102461.39
2019-03-28T23:04:46.156Z,102461.16
2019-03-28T23:10:40.441Z,102471.20
2019-03-28T23:13:27.487Z,102466.19
2019-03-28T23:16:14.070Z,102470.64
2019-03-28T23:19:00.790Z,102476.00
2019-03-28T23:21:47.437Z,102477.06
2019-03-28T23:24:34.496Z,102476.97
2019-03-28T23:30:28.639Z,102482.23
2019-03-28T23:33:14.683Z,102474.86
2019-03-28T23:36:01.924Z,102479.34
2019-03-28T23:38:50.041Z,102476.36
2019-03-28T23:41:37.368Z,102477.31
2019-03-28T23:44:24.456Z,102478.69
2019-03-28T23:47:11.299Z,102476.48
2019-03-28T23:49:58.509Z,102477.63
2019-03-28T23:52:46.578Z,102480.75
2019-03-28T23:55:33.628Z,102479.23
2019-03-28T23:58:21.042Z,102476.69
